sensor_id;sensor_type;location;lat;lon;timestamp;pressure;altitude;pressure_sealevel;temperature
18161;BMP280;9205;52.032;4.314;2024-01-10T00:01:54;103181.88;;;-0.44
18161;BMP280;9205;52.032;4.314;2024-01-10T00:04:21;103176.72;;;-0.47
18161;BMP280;9205;52.032;4.314;2024-01-10T00:06:50;103183.41;;;-0.46
18161;BMP280;9205;52.032;4.314;2024-01-10T00:09:17;103167.22;;;-0.52
18161;BMP280;9205;52.032;4.314;2024-01-10T00:11:44;103166.34;;;-0.53
18161;BMP280;9205;52.032;4.314;2024-01-10T00:14:11;103169.84;;;-0.64
18161;BMP280;9205;52.032;4.314;2024-01-10T00:16:39;103148.16;;;-0.65
18161;BMP280;9205;52.032;4.314;2024-01-10T00:19:06;103157.78;;;-0.71
18161;BMP280;9205;52.032;4.314;2024-01-10T00:21:33;103155.72;;;-0.63
18161;BMP280;9205;52.032;4.314;2024-01-10T00:24:02;103154.88;;;-0.64
18161;BMP280;9205;52.032;4.314;2024-01-10T00:26:30;103145.81;;;-0.62
18161;BMP280;9205;52.032;4.314;2024-01-10T00:28:57;103155.78;;;-0.62
18161;BMP280;9205;52.032;4.314;2024-01-10T00:31:24;103145.66;;;-0.65
18161;BMP280;9205;52.032;4.314;2024-01-10T00:33:51;103160.13;;;-0.59
18161;BMP280;9205;52.032;4.314;2024-01-10T00:36:18;103150.22;;;-0.58
18161;BMP280;9205;52.032;4.314;2024-01-10T00:38:45;103146.41;;;-0.66
18161;BMP280;9205;52.032;4.314;2024-01-10T00:41:14;103148.16;;;-0.65
18161;BMP280;9205;52.032;4.314;2024-01-10T00:43:41;103148.16;;;-0.65
18161;BMP280;9205;52.032;4.314;2024-01-10T00:46:08;103145.91;;;-0.60
18161;BMP280;9205;52.032;4.314;2024-01-10T00:48:35;103150.56;;;-0.66
18161;BMP280;9205;52.032;4.314;2024-01-10T00:51:03;103152.38;;;-0.64
18161;BMP280;9205;52.032;4.314;2024-01-10T00:53:34;103146.78;;;-0.60
18161;BMP280;9205;52.032;4.314;2024-01-10T00:56:01;103147.25;;;-0.65
18161;BMP280;9205;52.032;4.314;2024-01-10T00:58:30;103151.06;;;-0.72
18161;BMP280;9205;52.032;4.314;2024-01-10T01:00:57;103154.88;;;-0.77
18161;BMP280;9205;52.032;4.314;2024-01-10T01:03:24;103151.47;;;-0.78
18161;BMP280;9205;52.032;4.314;2024-01-10T01:05:51;103139.13;;;-0.76
18161;BMP280;9205;52.032;4.314;2024-01-10T01:08:18;103139.41;;;-0.71
18161;BMP280;9205;52.032;4.314;2024-01-10T01:10:46;103142.97;;;-0.68
18161;BMP280;9205;52.032;4.314;2024-01-10T01:13:13;103148.97;;;-0.78
18161;BMP280;9205;52.032;4.314;2024-01-10T01:15:41;103151.63;;;-0.76
18161;BMP280;9205;52.032;4.314;2024-01-10T01:18:08;103145.78;;;-0.76
18161;BMP280;9205;52.032;4.314;2024-01-10T01:20:38;103144.13;;;-0.76
18161;BMP280;9205;52.032;4.314;2024-01-10T01:23:05;103146.63;;;-0.76
18161;BMP280;9205;52.032;4.314;2024-01-10T01:25:32;103149.13;;;-0.76
18161;BMP280;9205;52.032;4.314;2024-01-10T01:27:59;103144.13;;;-0.76
18161;BMP280;9205;52.032;4.314;2024-01-10T01:30:27;103133.22;;;-0.77
18161;BMP280;9205;52.032;4.314;2024-01-10T01:32:55;103134.91;;;-0.77
18161;BMP280;9205;52.032;4.314;2024-01-10T01:35:22;103137.06;;;-0.82
18161;BMP280;9205;52.032;4.314;2024-01-10T01:37:49;103118.03;;;-0.80
18161;BMP280;9205;52.032;4.314;2024-01-10T01:40:18;103129.84;;;-0.78
18161;BMP280;9205;52.032;4.314;2024-01-10T01:42:46;103126.78;;;-0.74
18161;BMP280;9205;52.032;4.314;2024-01-10T01:45:14;103125.13;;;-0.74
18161;BMP280;9205;52.032;4.314;2024-01-10T01:47:41;103121.84;;;-0.73
18161;BMP280;9205;52.032;4.314;2024-01-10T01:50:10;103124.16;;;-0.76
18161;BMP280;9205;52.032;4.314;2024-01-10T01:52:38;103129.63;;;-0.68
18161;BMP280;9205;52.032;4.314;2024-01-10T01:55:07;103122.63;;;-0.74
18161;BMP280;9205;52.032;4.314;2024-01-10T01:57:35;103127.53;;;-0.75
18161;BMP280;9205;52.032;4.314;2024-01-10T02:00:04;103125.97;;;-0.73
18161;BMP280;9205;52.032;4.314;2024-01-10T02:02:34;103121.78;;;-0.74
18161;BMP280;9205;52.032;4.314;2024-01-10T02:05:01;103116.25;;;-0.83
18161;BMP280;9205;52.032;4.314;2024-01-10T02:07:31;103116.50;;;-0.78
18161;BMP280;9205;52.032;4.314;2024-01-10T02:09:58;103116.66;;;-0.76
18161;BMP280;9205;52.032;4.314;2024-01-10T02:12:25;103118.41;;;-0.75
18161;BMP280;9205;52.032;4.314;2024-01-10T02:14:52;103112.78;;;-0.85
18161;BMP280;9205;52.032;4.314;2024-01-10T02:17:20;103121.81;;;-0.87
18161;BMP280;9205;52.032;4.314;2024-01-10T02:19:47;103115.28;;;-0.85
18161;BMP280;9205;52.032;4.314;2024-01-10T02:22:14;103115.34;;;-0.83
18161;BMP280;9205;52.032;4.314;2024-01-10T02:24:43;103106.75;;;-0.88
18161;BMP280;9205;52.032;4.314;2024-01-10T02:27:11;103109.25;;;-0.88
18161;BMP280;9205;52.032;4.314;2024-01-10T02:29:38;103111.94;;;-0.85
18161;BMP280;9205;52.032;4.314;2024-01-10T02:32:06;103102.09;;;-0.82
18161;BMP280;9205;52.032;4.314;2024-01-10T02:34:33;103103.06;;;-0.80
18161;BMP280;9205;52.032;4.314;2024-01-10T02:37:00;103095.84;;;-0.76
18161;BMP280;9205;52.032;4.314;2024-01-10T02:39:27;103097.31;;;-0.79
18161;BMP280;9205;52.032;4.314;2024-01-10T02:41:54;103093.09;;;-0.80
18161;BMP280;9205;52.032;4.314;2024-01-10T02:44:23;103098.06;;;-0.80
18161;BMP280;9205;52.032;4.314;2024-01-10T02:46:50;103086.44;;;-0.80
18161;BMP280;9205;52.032;4.314;2024-01-10T02:49:18;103084.63;;;-0.82
18161;BMP280;9205;52.032;4.314;2024-01-10T02:51:45;103090.38;;;-0.83
18161;BMP280;9205;52.032;4.314;2024-01-10T02:54:12;103079.28;;;-0.88
18161;BMP280;9205;52.032;4.314;2024-01-10T02:56:39;103081.09;;;-0.86
18161;BMP280;9205;52.032;4.314;2024-01-10T02:59:06;103084.63;;;-0.82
18161;BMP280;9205;52.032;4.314;2024-01-10T03:01:35;103084.75;;;-0.81
18161;BMP280;9205;52.032;4.314;2024-01-10T03:04:02;103082.31;;;-0.79
18161;BMP280;9205;52.032;4.314;2024-01-10T03:06:29;103086.56;;;-0.78
18161;BMP280;9205;52.032;4.314;2024-01-10T03:08:56;103089.97;;;-0.77
18161;BMP280;9205;52.032;4.314;2024-01-10T03:11:23;103088.09;;;-0.80
18161;BMP280;9205;52.032;4.314;2024-01-10T03:14:02;103080.41;;;-0.83
18161;BMP280;9205;52.032;4.314;2024-01-10T03:16:29;103073.78;;;-0.83
18161;BMP280;9205;52.032;4.314;2024-01-10T03:18:58;103075.69;;;-0.79
18161;BMP280;9205;52.032;4.314;2024-01-10T03:21:25;103067.91;;;-0.83
18161;BMP280;9205;52.032;4.314;2024-01-10T03:23:54;103081.84;;;-0.87
18161;BMP280;9205;52.032;4.314;2024-01-10T03:26:22;103067.56;;;-0.89
18161;BMP280;9205;52.032;4.314;2024-01-10T03:28:49;103065.00;;;-0.91
18161;BMP280;9205;52.032;4.314;2024-01-10T03:31:16;103069.09;;;-0.91
18161;BMP280;9205;52.032;4.314;2024-01-10T03:33:44;103073.25;;;-0.92
18161;BMP280;9205;52.032;4.314;2024-01-10T03:36:15;103065.75;;;-0.92
18161;BMP280;9205;52.032;4.314;2024-01-10T03:38:43;103061.53;;;-0.93
18161;BMP280;9205;52.032;4.314;2024-01-10T03:41:13;103061.03;;;-0.87
18161;BMP280;9205;52.032;4.314;2024-01-10T03:43:40;103066.19;;;-0.84
18161;BMP280;9205;52.032;4.314;2024-01-10T03:46:08;103067.16;;;-0.82
18161;BMP280;9205;52.032;4.314;2024-01-10T03:48:35;103063.88;;;-0.81
18161;BMP280;9205;52.032;4.314;2024-01-10T03:51:03;103058.84;;;-0.96
18161;BMP280;9205;52.032;4.314;2024-01-10T03:53:31;103066.84;;;-1.01
18161;BMP280;9205;52.032;4.314;2024-01-10T03:55:59;103063.75;;;-0.97
18161;BMP280;9205;52.032;4.314;2024-01-10T03:58:26;103059.09;;;-1.06
18161;BMP280;9205;52.032;4.314;2024-01-10T04:00:53;103059.25;;;-1.03
18161;BMP280;9205;52.032;4.314;2024-01-10T04:03:20;103056.09;;;-1.00
18161;BMP280;9205;52.032;4.314;2024-01-10T04:05:47;103051.13;;;-1.00
18161;BMP280;9205;52.032;4.314;2024-01-10T04:08:14;103050.59;;;-0.95
18161;BMP280;9205;52.032;4.314;2024-01-10T04:10:43;103044.13;;;-0.91
18161;BMP280;9205;52.032;4.314;2024-01-10T04:13:10;103044.91;;;-0.92
18161;BMP280;9205;52.032;4.314;2024-01-10T04:15:37;103046.75;;;-0.90
18161;BMP280;9205;52.032;4.314;2024-01-10T04:18:05;103042.06;;;-0.98
18161;BMP280;9205;52.032;4.314;2024-01-10T04:20:32;103035.06;;;-1.04
18161;BMP280;9205;52.032;4.314;2024-01-10T04:22:59;103039.41;;;-1.01
18161;BMP280;9205;52.032;4.314;2024-01-10T04:25:27;103032.75;;;-1.01
18161;BMP280;9205;52.032;4.314;2024-01-10T04:27:55;103039.81;;;-1.08
18161;BMP280;9205;52.032;4.314;2024-01-10T04:30:23;103042.41;;;-1.07
18161;BMP280;9205;52.032;4.314;2024-01-10T04:32:50;103035.59;;;-1.09
18161;BMP280;9205;52.032;4.314;2024-01-10T04:35:17;103032.41;;;-1.07
18161;BMP280;9205;52.032;4.314;2024-01-10T04:37:45;103023.88;;;-1.10
18161;BMP280;9205;52.032;4.314;2024-01-10T04:40:12;103025.63;;;-1.09
18161;BMP280;9205;52.032;4.314;2024-01-10T04:42:40;103027.44;;;-1.07
18161;BMP280;9205;52.032;4.314;2024-01-10T04:45:09;103025.78;;;-1.06
18161;BMP280;9205;52.032;4.314;2024-01-10T04:47:36;103034.13;;;-1.06
18161;BMP280;9205;52.032;4.314;2024-01-10T04:50:04;103037.06;;;-1.13
18161;BMP280;9205;52.032;4.314;2024-01-10T04:52:31;103035.22;;;-1.15
18161;BMP280;9205;52.032;4.314;2024-01-10T04:54:59;103025.16;;;-1.17
18161;BMP280;9205;52.032;4.314;2024-01-10T04:57:26;103025.34;;;-1.14
18161;BMP280;9205;52.032;4.314;2024-01-10T04:59:53;103021.19;;;-1.13
18161;BMP280;9205;52.032;4.314;2024-01-10T05:02:21;103028.78;;;-1.12
18161;BMP280;9205;52.032;4.314;2024-01-10T05:04:49;103023.88;;;-1.10
18161;BMP280;9205;52.032;4.314;2024-01-10T05:07:16;103028.78;;;-1.12
18161;BMP280;9205;52.032;4.314;2024-01-10T05:09:43;103029.44;;;-1.14
18161;BMP280;9205;52.032;4.314;2024-01-10T05:12:10;103026.09;;;-1.15
18161;BMP280;9205;52.032;4.314;2024-01-10T05:14:38;103032.06;;;-1.13
18161;BMP280;9205;52.032;4.314;2024-01-10T05:17:05;103026.53;;;-1.07
18161;BMP280;9205;52.032;4.314;2024-01-10T05:19:33;103017.25;;;-1.10
18161;BMP280;9205;52.032;4.314;2024-01-10T05:22:01;103017.38;;;-1.08
18161;BMP280;9205;52.032;4.314;2024-01-10T05:24:28;103011.22;;;-1.13
18161;BMP280;9205;52.032;4.314;2024-01-10T05:26:55;103018.69;;;-1.13
18161;BMP280;9205;52.032;4.314;2024-01-10T05:29:23;103020.16;;;-1.17
18161;BMP280;9205;52.032;4.314;2024-01-10T05:31:51;103032.53;;;-1.18
18161;BMP280;9205;52.032;4.314;2024-01-10T05:34:18;103022.38;;;-1.21
18161;BMP280;9205;52.032;4.314;2024-01-10T05:36:47;103023.16;;;-1.22
18161;BMP280;9205;52.032;4.314;2024-01-10T05:39:15;103017.72;;;-1.30
18161;BMP280;9205;52.032;4.314;2024-01-10T05:41:42;103009.94;;;-1.34
18161;BMP280;9205;52.032;4.314;2024-01-10T05:44:10;103011.47;;;-1.36
18161;BMP280;9205;52.032;4.314;2024-01-10T05:46:37;103007.47;;;-1.34
18161;BMP280;9205;52.032;4.314;2024-01-10T05:49:04;103015.13;;;-1.31
18161;BMP280;9205;52.032;4.314;2024-01-10T05:51:31;103015.97;;;-1.31
18161;BMP280;9205;52.032;4.314;2024-01-10T05:54:00;103017.63;;;-1.31
18161;BMP280;9205;52.032;4.314;2024-01-10T05:56:27;103011.06;;;-1.29
18161;BMP280;9205;52.032;4.314;2024-01-10T05:58:55;103017.72;;;-1.30
18161;BMP280;9205;52.032;4.314;2024-01-10T06:01:22;103027.00;;;-1.27
18161;BMP280;9205;52.032;4.314;2024-01-10T06:03:49;103019.25;;;-1.32
18161;BMP280;9205;52.032;4.314;2024-01-10T06:06:16;103010.25;;;-1.43
18161;BMP280;9205;52.032;4.314;2024-01-10T06:08:43;103012.38;;;-1.49
18161;BMP280;9205;52.032;4.314;2024-01-10T06:11:12;103014.78;;;-1.50
18161;BMP280;9205;52.032;4.314;2024-01-10T06:13:39;103022.06;;;-1.53
18161;BMP280;9205;52.032;4.314;2024-01-10T06:16:07;103009.19;;;-1.46
18161;BMP280;9205;52.032;4.314;2024-01-10T06:18:34;103014.38;;;-1.43
18161;BMP280;9205;52.032;4.314;2024-01-10T06:21:02;103013.81;;;-1.39
18161;BMP280;9205;52.032;4.314;2024-01-10T06:23:30;103014.84;;;-1.36
18161;BMP280;9205;52.032;4.314;2024-01-10T06:25:57;103010.94;;;-1.45
18161;BMP280;9205;52.032;4.314;2024-01-10T06:28:25;103005.94;;;-1.45
18161;BMP280;9205;52.032;4.314;2024-01-10T06:30:53;103008.63;;;-1.42
18161;BMP280;9205;52.032;4.314;2024-01-10T06:33:20;103008.44;;;-1.45
18161;BMP280;9205;52.032;4.314;2024-01-10T06:35:47;103018.03;;;-1.51
18161;BMP280;9205;52.032;4.314;2024-01-10T06:38:14;103010.84;;;-1.47
18161;BMP280;9205;52.032;4.314;2024-01-10T06:40:42;103009.41;;;-1.43
18161;BMP280;9205;52.032;4.314;2024-01-10T06:43:10;103010.44;;;-1.40
18161;BMP280;9205;52.032;4.314;2024-01-10T06:45:39;103015.16;;;-1.44
18161;BMP280;9205;52.032;4.314;2024-01-10T06:48:08;103003.28;;;-1.48
18161;BMP280;9205;52.032;4.314;2024-01-10T06:50:35;103003.97;;;-1.51
18161;BMP280;9205;52.032;4.314;2024-01-10T06:53:03;103009.03;;;-1.49
18161;BMP280;9205;52.032;4.314;2024-01-10T06:55:30;103007.31;;;-1.50
18161;BMP280;9205;52.032;4.314;2024-01-10T06:57:57;103004.31;;;-1.45
18161;BMP280;9205;52.032;4.314;2024-01-10T07:00:25;103007.75;;;-1.43
18161;BMP280;9205;52.032;4.314;2024-01-10T07:02:53;102999.22;;;-1.46
18161;BMP280;9205;52.032;4.314;2024-01-10T07:05:20;103009.44;;;-1.56
18161;BMP280;9205;52.032;4.314;2024-01-10T07:07:47;102999.53;;;-1.55
18161;BMP280;9205;52.032;4.314;2024-01-10T07:10:15;103012.78;;;-1.56
18161;BMP280;9205;52.032;4.314;2024-01-10T07:12:44;103017.75;;;-1.56
18161;BMP280;9205;52.032;4.314;2024-01-10T07:15:11;103020.47;;;-1.53
18161;BMP280;9205;52.032;4.314;2024-01-10T07:17:39;103017.47;;;-1.47
18161;BMP280;9205;52.032;4.314;2024-01-10T07:20:09;103036.81;;;-1.43
18161;BMP280;9205;52.032;4.314;2024-01-10T07:22:38;103022.81;;;-1.41
18161;BMP280;9205;52.032;4.314;2024-01-10T07:25:08;103026.09;;;-1.42
18161;BMP280;9205;52.032;4.314;2024-01-10T07:27:35;103017.47;;;-1.47
18161;BMP280;9205;52.032;4.314;2024-01-10T07:30:05;103024.00;;;-1.49
18161;BMP280;9205;52.032;4.314;2024-01-10T07:32:39;103023.31;;;-1.47
18161;BMP280;9205;52.032;4.314;2024-01-10T07:35:10;103016.69;;;-1.46
18161;BMP280;9205;52.032;4.314;2024-01-10T07:37:37;103033.28;;;-1.47
18161;BMP280;9205;52.032;4.314;2024-01-10T07:40:06;103024.84;;;-1.49
18161;BMP280;9205;52.032;4.314;2024-01-10T07:42:34;103024.00;;;-1.49
18161;BMP280;9205;52.032;4.314;2024-01-10T07:45:02;103007.66;;;-1.44
18161;BMP280;9205;52.032;4.314;2024-01-10T07:47:30;103017.28;;;-1.50
18161;BMP280;9205;52.032;4.314;2024-01-10T07:49:58;103024.97;;;-1.47
18161;BMP280;9205;52.032;4.314;2024-01-10T07:52:26;103030.72;;;-1.48
18161;BMP280;9205;52.032;4.314;2024-01-10T07:54:53;103021.50;;;-1.49
18161;BMP280;9205;52.032;4.314;2024-01-10T07:57:21;103028.38;;;-1.45
18161;BMP280;9205;52.032;4.314;2024-01-10T07:59:48;103035.09;;;-1.44
18161;BMP280;9205;52.032;4.314;2024-01-10T08:02:16;103035.09;;;-1.44
18161;BMP280;9205;52.032;4.314;2024-01-10T08:04:43;103028.50;;;-1.44
18161;BMP280;9205;52.032;4.314;2024-01-10T08:07:10;103031.28;;;-1.52
18161;BMP280;9205;52.032;4.314;2024-01-10T08:09:39;103023.81;;;-1.52
18161;BMP280;9205;52.032;4.314;2024-01-10T08:12:07;103030.50;;;-1.51
18161;BMP280;9205;52.032;4.314;2024-01-10T08:14:34;103030.44;;;-1.53
18161;BMP280;9205;52.032;4.314;2024-01-10T08:17:03;103028.09;;;-1.50
18161;BMP280;9205;52.032;4.314;2024-01-10T08:19:32;103035.97;;;-1.44
18161;BMP280;9205;52.032;4.314;2024-01-10T08:21:59;103036.06;;;-1.42
18161;BMP280;9205;52.032;4.314;2024-01-10T08:24:26;103037.97;;;-1.38
18161;BMP280;9205;52.032;4.314;2024-01-10T08:26:55;103036.91;;;-1.42
18161;BMP280;9205;52.032;4.314;2024-01-10T08:29:22;103038.47;;;-1.44
18161;BMP280;9205;52.032;4.314;2024-01-10T08:31:56;103042.59;;;-1.44
18161;BMP280;9205;52.032;4.314;2024-01-10T08:34:23;103033.22;;;-1.48
18161;BMP280;9205;52.032;4.314;2024-01-10T08:36:51;103032.69;;;-1.43
18161;BMP280;9205;52.032;4.314;2024-01-10T08:39:19;103025.22;;;-1.43
18161;BMP280;9205;52.032;4.314;2024-01-10T08:41:48;103021.09;;;-1.42
18161;BMP280;9205;52.032;4.314;2024-01-10T08:44:16;103018.59;;;-1.42
18161;BMP280;9205;52.032;4.314;2024-01-10T08:46:44;103029.34;;;-1.43
18161;BMP280;9205;52.032;4.314;2024-01-10T08:49:11;103032.81;;;-1.41
18161;BMP280;9205;52.032;4.314;2024-01-10T08:51:38;103032.03;;;-1.40
18161;BMP280;9205;52.032;4.314;2024-01-10T08:54:06;103012.16;;;-1.39
18161;BMP280;9205;52.032;4.314;2024-01-10T08:56:34;103016.13;;;-1.42
18161;BMP280;9205;52.032;4.314;2024-01-10T08:59:02;103018.00;;;-1.38
18161;BMP280;9205;52.032;4.314;2024-01-10T09:01:31;103009.88;;;-1.36
18161;BMP280;9205;52.032;4.314;2024-01-10T09:03:58;103007.06;;;-1.27
18161;BMP280;9205;52.032;4.314;2024-01-10T09:06:25;103014.88;;;-1.21
18161;BMP280;9205;52.032;4.314;2024-01-10T09:08:52;103016.53;;;-1.22
18161;BMP280;9205;52.032;4.314;2024-01-10T09:11:20;103010.00;;;-1.20
18161;BMP280;9205;52.032;4.314;2024-01-10T09:13:47;103007.59;;;-1.18
18161;BMP280;9205;52.032;4.314;2024-01-10T09:16:15;103010.66;;;-1.22
18161;BMP280;9205;52.032;4.314;2024-01-10T09:18:45;103015.34;;;-1.14
18161;BMP280;9205;52.032;4.314;2024-01-10T09:21:14;103019.59;;;-1.13
18161;BMP280;9205;52.032;4.314;2024-01-10T09:23:41;103012.38;;;-1.08
18161;BMP280;9205;52.032;4.314;2024-01-10T09:26:08;103017.44;;;-1.07
18161;BMP280;9205;52.032;4.314;2024-01-10T09:28:36;103011.75;;;-1.04
18161;BMP280;9205;52.032;4.314;2024-01-10T09:31:03;103021.94;;;-1.01
18161;BMP280;9205;52.032;4.314;2024-01-10T09:33:33;103012.47;;;-0.92
18161;BMP280;9205;52.032;4.314;2024-01-10T09:36:02;103012.06;;;-0.85
18161;BMP280;9205;52.032;4.314;2024-01-10T09:38:29;103021.63;;;-0.78
18161;BMP280;9205;52.032;4.314;2024-01-10T09:41:04;103010.88;;;-0.77
18161;BMP280;9205;52.032;4.314;2024-01-10T09:43:32;103021.22;;;-0.72
18161;BMP280;9205;52.032;4.314;2024-01-10T09:46:01;103020.72;;;-0.66
18161;BMP280;9205;52.032;4.314;2024-01-10T09:48:30;103023.97;;;-0.53
18161;BMP280;9205;52.032;4.314;2024-01-10T09:50:57;103031.56;;;-0.51
18161;BMP280;9205;52.032;4.314;2024-01-10T09:53:27;103020.47;;;-0.42
18161;BMP280;9205;52.032;4.314;2024-01-10T09:55:57;103019.06;;;-0.37
18161;BMP280;9205;52.032;4.314;2024-01-10T09:58:26;103012.88;;;-0.29
18161;BMP280;9205;52.032;4.314;2024-01-10T10:00:53;103018.19;;;-0.23
18161;BMP280;9205;52.032;4.314;2024-01-10T10:03:21;103016.66;;;-0.21
18161;BMP280;9205;52.032;4.314;2024-01-10T10:05:49;103017.16;;;-0.12
18161;BMP280;9205;52.032;4.314;2024-01-10T10:08:16;103020.94;;;-0.04
18161;BMP280;9205;52.032;4.314;2024-01-10T10:10:50;103016.91;;;-0.02
18161;BMP280;9205;52.032;4.314;2024-01-10T10:13:25;103014.81;;;0.05
18161;BMP280;9205;52.032;4.314;2024-01-10T10:15:58;103012.72;;;0.13
18161;BMP280;9205;52.032;4.314;2024-01-10T10:18:27;103009.09;;;0.08
18161;BMP280;9205;52.032;4.314;2024-01-10T10:21:11;103009.59;;;0.17
18161;BMP280;9205;52.032;4.314;2024-01-10T10:23:40;103006.41;;;0.19
18161;BMP280;9205;52.032;4.314;2024-01-10T10:26:14;103003.22;;;0.22
18161;BMP280;9205;52.032;4.314;2024-01-10T10:28:47;102996.22;;;0.31
18161;BMP280;9205;52.032;4.314;2024-01-10T10:31:15;102997.38;;;0.37
18161;BMP280;9205;52.032;4.314;2024-01-10T10:33:43;103003.13;;;0.51
18161;BMP280;9205;52.032;4.314;2024-01-10T10:36:13;102990.94;;;0.57
18161;BMP280;9205;52.032;4.314;2024-01-10T10:38:40;102996.59;;;0.69
18161;BMP280;9205;52.032;4.314;2024-01-10T10:41:08;102998.28;;;0.70
18161;BMP280;9205;52.032;4.314;2024-01-10T10:43:39;102998.44;;;0.73
18161;BMP280;9205;52.032;4.314;2024-01-10T10:46:08;102980.63;;;0.82
18161;BMP280;9205;52.032;4.314;2024-01-10T10:48:38;102987.34;;;0.83
18161;BMP280;9205;52.032;4.314;2024-01-10T10:51:09;102986.94;;;0.92
18161;BMP280;9205;52.032;4.314;2024-01-10T10:53:38;102981.41;;;0.97
18161;BMP280;9205;52.032;4.314;2024-01-10T10:56:07;102986.53;;;1.00
18161;BMP280;9205;52.032;4.314;2024-01-10T10:58:40;102977.00;;;1.09
18161;BMP280;9205;52.032;4.314;2024-01-10T11:01:10;102981.59;;;1.18
18161;BMP280;9205;52.032;4.314;2024-01-10T11:03:39;102987.47;;;1.18
18161;BMP280;9205;52.032;4.314;2024-01-10T11:06:07;102990.44;;;1.27
18161;BMP280;9205;52.032;4.314;2024-01-10T11:08:39;102993.53;;;1.39
18161;BMP280;9205;52.032;4.314;2024-01-10T11:11:21;102972.91;;;1.45
18161;BMP280;9205;52.032;4.314;2024-01-10T11:14:18;102977.22;;;1.47
18161;BMP280;9205;52.032;4.314;2024-01-10T11:17:34;102982.31;;;1.49
18161;BMP280;9205;52.032;4.314;2024-01-10T11:20:34;102976.88;;;1.57
18161;BMP280;9205;52.032;4.314;2024-01-10T11:23:36;102978.88;;;1.64
18161;BMP280;9205;52.032;4.314;2024-01-10T11:26:05;102982.69;;;1.56
18161;BMP280;9205;52.032;4.314;2024-01-10T11:28:35;102972.03;;;1.60
18161;BMP280;9205;52.032;4.314;2024-01-10T11:31:06;102974.88;;;1.67
18161;BMP280;9205;52.032;4.314;2024-01-10T11:33:35;102978.25;;;1.85
18161;BMP280;9205;52.032;4.314;2024-01-10T11:36:16;102975.75;;;2.03
18161;BMP280;9205;52.032;4.314;2024-01-10T11:38:48;102969.94;;;2.04
18161;BMP280;9205;52.032;4.314;2024-01-10T11:41:22;102968.72;;;1.96
18161;BMP280;9205;52.032;4.314;2024-01-10T11:44:46;102977.13;;;1.96
18161;BMP280;9205;52.032;4.314;2024-01-10T11:47:15;102966.06;;;1.93
18161;BMP280;9205;52.032;4.314;2024-01-10T11:49:56;102964.66;;;1.98
18161;BMP280;9205;52.032;4.314;2024-01-10T11:52:26;102957.16;;;2.17
18161;BMP280;9205;52.032;4.314;2024-01-10T11:54:58;102949.50;;;2.69
18161;BMP280;9205;52.032;4.314;2024-01-10T11:57:27;102952.13;;;3.50
18161;BMP280;9205;52.032;4.314;2024-01-10T11:59:56;102950.53;;;4.38
18161;BMP280;9205;52.032;4.314;2024-01-10T12:02:29;102939.09;;;4.93
18161;BMP280;9205;52.032;4.314;2024-01-10T12:04:56;102948.94;;;5.12
18161;BMP280;9205;52.032;4.314;2024-01-10T12:07:23;102942.72;;;5.01
18161;BMP280;9205;52.032;4.314;2024-01-10T12:09:51;102939.94;;;4.47
18161;BMP280;9205;52.032;4.314;2024-01-10T12:12:18;102947.22;;;3.95
18161;BMP280;9205;52.032;4.314;2024-01-10T12:14:46;102934.78;;;3.56
18161;BMP280;9205;52.032;4.314;2024-01-10T12:17:13;102947.72;;;3.45
18161;BMP280;9205;52.032;4.314;2024-01-10T12:19:42;102939.00;;;3.37
18161;BMP280;9205;52.032;4.314;2024-01-10T12:22:10;102942.88;;;3.29
18161;BMP280;9205;52.032;4.314;2024-01-10T12:24:43;102940.97;;;3.23
18161;BMP280;9205;52.032;4.314;2024-01-10T12:27:12;102933.44;;;3.05
18161;BMP280;9205;52.032;4.314;2024-01-10T12:29:39;102931.69;;;3.02
18161;BMP280;9205;52.032;4.314;2024-01-10T12:32:08;102929.66;;;2.94
18161;BMP280;9205;52.032;4.314;2024-01-10T12:34:38;102932.47;;;3.01
18161;BMP280;9205;52.032;4.314;2024-01-10T12:37:07;102925.22;;;3.07
18161;BMP280;9205;52.032;4.314;2024-01-10T12:39:38;102927.09;;;3.12
18161;BMP280;9205;52.032;4.314;2024-01-10T12:42:05;102921.47;;;3.18
18161;BMP280;9205;52.032;4.314;2024-01-10T12:44:32;102933.78;;;3.12
18161;BMP280;9205;52.032;4.314;2024-01-10T12:47:00;102918.13;;;2.99
18161;BMP280;9205;52.032;4.314;2024-01-10T12:49:28;102930.13;;;2.85
18161;BMP280;9205;52.032;4.314;2024-01-10T12:51:55;102925.56;;;2.77
18161;BMP280;9205;52.032;4.314;2024-01-10T12:54:24;102924.03;;;2.80
18161;BMP280;9205;52.032;4.314;2024-01-10T12:56:52;102931.38;;;2.76
18161;BMP280;9205;52.032;4.314;2024-01-10T12:59:19;102928.28;;;2.81
18161;BMP280;9205;52.032;4.314;2024-01-10T13:01:46;102929.22;;;2.83
18161;BMP280;9205;52.032;4.314;2024-01-10T13:04:14;102923.41;;;2.84
18161;BMP280;9205;52.032;4.314;2024-01-10T13:06:41;102918.88;;;2.96
18161;BMP280;9205;52.032;4.314;2024-01-10T13:09:08;102916.56;;;3.01
18161;BMP280;9205;52.032;4.314;2024-01-10T13:11:37;102912.03;;;2.92
18161;BMP280;9205;52.032;4.314;2024-01-10T13:14:04;102912.66;;;3.07
18161;BMP280;9205;52.032;4.314;2024-01-10T13:16:31;102915.16;;;3.07
18161;BMP280;9205;52.032;4.314;2024-01-10T13:18:58;102916.44;;;3.18
18161;BMP280;9205;52.032;4.314;2024-01-10T13:21:26;102913.69;;;3.12
18161;BMP280;9205;52.032;4.314;2024-01-10T13:23:53;102907.91;;;3.14
18161;BMP280;9205;52.032;4.314;2024-01-10T13:26:20;102903.97;;;3.19
18161;BMP280;9205;52.032;4.314;2024-01-10T13:28:50;102905.00;;;3.24
18161;BMP280;9205;52.032;4.314;2024-01-10T13:31:17;102905.13;;;3.27
18161;BMP280;9205;52.032;4.314;2024-01-10T13:33:44;102901.50;;;3.21
18161;BMP280;9205;52.032;4.314;2024-01-10T13:36:11;102905.84;;;3.25
18161;BMP280;9205;52.032;4.314;2024-01-10T13:38:39;102914.34;;;3.28
18161;BMP280;9205;52.032;4.314;2024-01-10T13:41:06;102906.75;;;3.27
18161;BMP280;9205;52.032;4.314;2024-01-10T13:43:34;102904.00;;;3.21
18161;BMP280;9205;52.032;4.314;2024-01-10T13:46:03;102906.75;;;3.27
18161;BMP280;9205;52.032;4.314;2024-01-10T13:48:30;102905.97;;;3.28
18161;BMP280;9205;52.032;4.314;2024-01-10T13:50:58;102903.13;;;3.20
18161;BMP280;9205;52.032;4.314;2024-01-10T13:53:25;102909.59;;;3.14
18161;BMP280;9205;52.032;4.314;2024-01-10T13:55:52;102897.31;;;3.01
18161;BMP280;9205;52.032;4.314;2024-01-10T13:58:19;102900.88;;;3.06
18161;BMP280;9205;52.032;4.314;2024-01-10T14:00:49;102900.78;;;3.05
18161;BMP280;9205;52.032;4.314;2024-01-10T14:03:18;102898.19;;;3.02
18161;BMP280;9205;52.032;4.314;2024-01-10T14:05:45;102903.44;;;3.08
18161;BMP280;9205;52.032;4.314;2024-01-10T14:08:12;102898.97;;;3.01
18161;BMP280;9205;52.032;4.314;2024-01-10T14:10:41;102898.53;;;2.90
18161;BMP280;9205;52.032;4.314;2024-01-10T14:13:09;102899.47;;;2.92
18161;BMP280;9205;52.032;4.314;2024-01-10T14:15:36;102897.78;;;2.93
18161;BMP280;9205;52.032;4.314;2024-01-10T14:18:04;102898.63;;;2.93
18161;BMP280;9205;52.032;4.314;2024-01-10T14:20:32;102892.13;;;2.97